Terminal Aerodrome Forecast
Issued by NWS Paducah, KY

Home | Current Version | Previous Version | Text Only | Print | Product List | Glossary On
Versions: 1 2 3 4 5 6 7 8 9 10 11 12 13 14
894
FTUS43 KPAH 202322
TAFEVV
TAF
KEVV 202322Z 2100/2124 24009KT P6SM BKN100
     FM210700 VRB03KT P6SM BKN030
     FM211200 01005KT P6SM BKN015
     FM211600 02007KT P6SM BKN040=

USA.gov is the U.S. government's official web portal to all federal, state and local government web resources and services.